createdAt,value
2018-08-22T00:01:32.652Z,99.90
2018-08-22T00:06:13.001Z,99.90
2018-08-22T00:10:53.926Z,99.90
2018-08-22T00:15:35.251Z,99.90
2018-08-22T00:20:15.359Z,99.90
2018-08-22T00:24:57.064Z,99.90
2018-08-22T00:29:37.028Z,99.90
2018-08-22T00:34:16.984Z,99.90
2018-08-22T00:38:57.583Z,99.90
2018-08-22T00:43:37.544Z,99.90
2018-08-22T00:48:17.586Z,99.90
2018-08-22T00:52:57.655Z,99.90
2018-08-22T00:57:38.091Z,99.90
2018-08-22T01:02:18.860Z,99.90
2018-08-22T01:06:58.874Z,99.90
2018-08-22T01:11:39.136Z,99.90
2018-08-22T01:16:19.215Z,99.90
2018-08-22T01:20:59.088Z,99.90
2018-08-22T01:25:40.195Z,99.90
2018-08-22T01:30:20.767Z,99.90
2018-08-22T01:35:00.514Z,99.90
2018-08-22T01:39:41.144Z,99.90
2018-08-22T01:44:21.951Z,99.90
2018-08-22T01:49:02.001Z,99.90
2018-08-22T01:53:41.899Z,99.90
2018-08-22T01:58:22.220Z,99.90
2018-08-22T02:03:02.888Z,99.90
2018-08-22T02:07:42.830Z,99.90
2018-08-22T02:12:23.466Z,99.90
2018-08-22T02:17:03.235Z,99.90
2018-08-22T02:21:43.927Z,99.90
2018-08-22T02:26:23.928Z,99.90
2018-08-22T02:31:04.957Z,99.90
2018-08-22T02:35:46.512Z,99.90
2018-08-22T02:40:26.113Z,99.90
2018-08-22T02:45:05.940Z,99.90
2018-08-22T02:49:47.604Z,99.90
2018-08-22T02:54:27.436Z,99.90
2018-08-22T02:59:07.167Z,99.90
2018-08-22T03:03:47.009Z,99.90
2018-08-22T03:08:27.516Z,99.90
2018-08-22T03:13:08.052Z,99.90
2018-08-22T03:17:48.023Z,99.90
2018-08-22T03:22:27.907Z,99.90
2018-08-22T03:27:08.620Z,99.90
2018-08-22T03:31:48.276Z,99.90
2018-08-22T03:36:29.708Z,99.90
2018-08-22T03:41:10.892Z,99.90
2018-08-22T03:45:50.815Z,99.90
2018-08-22T03:50:31.084Z,99.90
2018-08-22T03:55:13.340Z,99.90
2018-08-22T03:59:53.672Z,99.90
2018-08-22T04:04:33.646Z,99.90
2018-08-22T04:09:14.474Z,99.90
2018-08-22T04:13:54.760Z,99.90
2018-08-22T04:18:34.566Z,99.90
2018-08-22T04:23:14.500Z,99.90
2018-08-22T04:27:54.749Z,99.90
2018-08-22T04:32:34.657Z,99.90
2018-08-22T04:37:14.899Z,99.90
2018-08-22T04:41:54.916Z,99.90
2018-08-22T04:46:35.684Z,99.90
2018-08-22T04:51:16.560Z,99.90
2018-08-22T04:55:57.240Z,99.90
2018-08-22T05:00:37.255Z,99.90
2018-08-22T05:05:17.078Z,99.90
2018-08-22T05:09:58.082Z,99.90
2018-08-22T05:14:38.511Z,99.90
2018-08-22T05:19:18.415Z,99.90
2018-08-22T05:23:58.395Z,99.90
2018-08-22T05:28:38.468Z,99.90
2018-08-22T05:33:19.245Z,99.90
2018-08-22T05:37:59.065Z,99.90
2018-08-22T05:42:39.270Z,99.90
2018-08-22T05:47:19.231Z,99.90
2018-08-22T05:51:59.104Z,99.90
2018-08-22T05:56:39.057Z,99.90
2018-08-22T06:01:18.877Z,99.90
2018-08-22T06:05:58.658Z,99.90
2018-08-22T06:10:38.947Z,99.90
2018-08-22T06:15:20.353Z,99.90
2018-08-22T06:20:00.010Z,99.90
2018-08-22T06:24:40.072Z,99.90
2018-08-22T06:29:20.157Z,99.90
2018-08-22T06:33:59.876Z,99.90
2018-08-22T06:38:40.688Z,99.90
2018-08-22T06:43:20.309Z,99.90
2018-08-22T06:48:01.214Z,99.90
2018-08-22T06:52:42.077Z,99.90
2018-08-22T06:57:21.776Z,99.90
2018-08-22T07:02:01.847Z,99.90
2018-08-22T07:06:41.572Z,99.90
2018-08-22T07:11:22.316Z,99.90
2018-08-22T07:16:02.384Z,99.90
2018-08-22T07:20:43.289Z,99.90
2018-08-22T07:25:24.047Z,99.90
2018-08-22T07:30:05.140Z,99.90
2018-08-22T07:34:45.348Z,99.70
2018-08-22T07:39:25.132Z,99.20
2018-08-22T07:44:05.308Z,98.30
2018-08-22T07:48:46.116Z,97.10
2018-08-22T07:53:25.997Z,95.90
2018-08-22T07:58:06.211Z,95.10
2018-08-22T08:02:46.176Z,93.90
2018-08-22T08:07:26.143Z,91.10
2018-08-22T08:12:06.070Z,85.70
2018-08-22T08:16:46.604Z,78.20
2018-08-22T08:21:27.297Z,73.00
2018-08-22T08:26:07.719Z,68.60
2018-08-22T08:30:47.442Z,63.50
2018-08-22T08:35:27.612Z,60.00
2018-08-22T08:40:07.667Z,57.10
2018-08-22T08:44:47.523Z,55.60
2018-08-22T08:49:28.176Z,53.50
2018-08-22T08:54:09.120Z,52.40
2018-08-22T08:58:50.208Z,51.70
2018-08-22T09:03:30.184Z,49.30
2018-08-22T09:08:10.788Z,49.00
2018-08-22T09:12:52.772Z,48.20
2018-08-22T09:17:33.022Z,46.80
2018-08-22T09:22:12.756Z,45.00
2018-08-22T09:26:53.584Z,45.70
2018-08-22T09:31:33.805Z,45.00
2018-08-22T09:36:15.948Z,44.20
2018-08-22T09:40:55.765Z,44.30
2018-08-22T09:45:36.665Z,43.50
2018-08-22T09:50:17.144Z,43.30
2018-08-22T09:55:00.292Z,42.50
2018-08-22T09:59:40.556Z,42.00
2018-08-22T10:04:20.892Z,38.80
2018-08-22T10:09:02.892Z,39.80
2018-08-22T10:13:43.552Z,38.70
2018-08-22T10:18:23.595Z,37.70
2018-08-22T10:23:04.113Z,38.80
2018-08-22T10:27:43.864Z,37.50
2018-08-22T10:32:25.232Z,37.80
2018-08-22T10:37:06.084Z,37.70
2018-08-22T10:41:46.864Z,37.10
2018-08-22T10:46:27.172Z,37.60
2018-08-22T10:51:08.351Z,38.00
2018-08-22T10:55:49.161Z,37.90
2018-08-22T11:00:29.856Z,37.30
2018-08-22T11:05:09.585Z,37.30
2018-08-22T11:09:50.295Z,36.30
2018-08-22T11:14:30.445Z,36.10
2018-08-22T11:19:10.716Z,35.70
2018-08-22T11:24:01.861Z,35.00
2018-08-22T11:28:52.913Z,34.60
2018-08-22T11:33:44.480Z,34.00
2018-08-22T11:38:24.555Z,33.40
2018-08-22T11:43:04.584Z,33.50
2018-08-22T11:47:44.970Z,33.90
2018-08-22T11:52:25.311Z,33.10
2018-08-22T11:57:05.192Z,32.80
2018-08-22T12:01:45.930Z,32.80
2018-08-22T12:06:26.179Z,32.80
2018-08-22T12:11:07.953Z,33.30
2018-08-22T12:15:47.632Z,33.90
2018-08-22T12:20:28.040Z,34.60
2018-08-22T12:25:08.647Z,34.00
2018-08-22T12:29:48.558Z,34.00
2018-08-22T12:34:28.615Z,33.10
2018-08-22T12:39:08.582Z,31.80
2018-08-22T12:43:49.541Z,30.70
2018-08-22T12:48:30.111Z,31.20
2018-08-22T12:53:09.787Z,31.40
2018-08-22T12:57:49.652Z,32.00
2018-08-22T13:02:29.532Z,31.30
2018-08-22T13:07:09.496Z,30.10
2018-08-22T13:11:50.047Z,30.50
2018-08-22T13:16:31.973Z,30.50
2018-08-22T13:21:12.339Z,30.00
2018-08-22T13:25:53.072Z,29.80
2018-08-22T13:30:33.595Z,30.40
2018-08-22T13:35:13.851Z,31.20
2018-08-22T13:39:54.004Z,30.50
2018-08-22T13:44:35.203Z,31.90
2018-08-22T13:49:18.584Z,31.30
2018-08-22T13:53:58.961Z,32.20
2018-08-22T13:58:38.855Z,33.70
2018-08-22T14:03:18.733Z,34.60
2018-08-22T14:07:58.609Z,35.60
2018-08-22T14:12:38.938Z,37.10
2018-08-22T14:17:18.993Z,36.40
2018-08-22T14:21:59.875Z,37.20
2018-08-22T14:26:41.418Z,37.30
2018-08-22T14:31:22.678Z,37.30
2018-08-22T14:36:03.254Z,38.10
2018-08-22T14:40:44.553Z,38.50
2018-08-22T14:45:26.706Z,37.60
2018-08-22T14:50:07.088Z,38.60
2018-08-22T14:54:47.792Z,38.70
2018-08-22T14:59:28.243Z,38.70
2018-08-22T15:04:08.244Z,39.60
2018-08-22T15:08:49.354Z,40.00
2018-08-22T15:13:30.176Z,40.10
2018-08-22T15:18:10.240Z,40.90
2018-08-22T15:22:51.900Z,41.30
2018-08-22T15:27:32.767Z,42.00
2018-08-22T15:32:13.196Z,42.90
2018-08-22T15:36:53.147Z,44.10
2018-08-22T15:41:34.336Z,44.00
2018-08-22T15:46:14.407Z,44.60
2018-08-22T15:50:55.120Z,44.50
2018-08-22T15:55:35.256Z,44.80
2018-08-22T16:00:23.689Z,44.70
2018-08-22T16:05:04.074Z,45.60
2018-08-22T16:09:44.695Z,46.20
2018-08-22T16:14:24.747Z,46.90
2018-08-22T16:19:04.922Z,47.00
2018-08-22T16:23:47.032Z,46.30
2018-08-22T16:28:30.237Z,46.40
2018-08-22T16:33:11.472Z,47.00
2018-08-22T16:38:05.676Z,47.40
2018-08-22T16:42:48.264Z,47.80
2018-08-22T16:47:32.538Z,48.10
2018-08-22T16:52:12.539Z,48.30
2018-08-22T16:56:53.424Z,48.60
2018-08-22T17:01:33.713Z,48.40
2018-08-22T17:06:14.615Z,48.70
2018-08-22T17:10:58.125Z,49.00
2018-08-22T17:15:46.370Z,48.50
2018-08-22T17:20:26.790Z,48.40
2018-08-22T17:25:13.208Z,49.80
2018-08-22T17:29:53.461Z,50.30
2018-08-22T17:34:34.316Z,50.40
2018-08-22T17:39:14.425Z,50.90
2018-08-22T17:44:06.100Z,50.90
2018-08-22T17:48:48.485Z,52.50
2018-08-22T17:53:28.861Z,54.80
2018-08-22T17:58:08.835Z,57.00
2018-08-22T18:02:50.652Z,58.20
2018-08-22T18:07:30.772Z,59.90
2018-08-22T18:12:11.494Z,62.30
2018-08-22T18:16:55.544Z,66.40
2018-08-22T18:21:44.628Z,69.40
2018-08-22T18:26:24.804Z,71.40
2018-08-22T18:31:04.623Z,73.10
2018-08-22T18:35:45.949Z,74.80
2018-08-22T18:40:28.836Z,76.70
2018-08-22T18:45:10.326Z,79.50
2018-08-22T18:49:50.944Z,81.60
2018-08-22T18:54:31.498Z,83.60
2018-08-22T18:59:23.938Z,86.10
2018-08-22T19:04:03.768Z,88.00
2018-08-22T19:08:43.820Z,90.00
2018-08-22T19:13:25.896Z,91.10
2018-08-22T19:18:07.844Z,91.90
2018-08-22T19:22:47.699Z,92.80
2018-08-22T19:27:28.335Z,93.80
2018-08-22T19:32:08.181Z,94.50
2018-08-22T19:36:48.323Z,95.30
2018-08-22T19:41:32.303Z,95.90
2018-08-22T19:46:12.458Z,96.30
2018-08-22T19:50:52.396Z,96.70
2018-08-22T19:55:34.099Z,97.30
2018-08-22T20:00:14.964Z,98.00
2018-08-22T20:04:56.485Z,98.40
2018-08-22T20:09:40.577Z,99.00
2018-08-22T20:14:20.989Z,99.70
2018-08-22T20:19:04.692Z,99.60
2018-08-22T20:23:45.207Z,99.90
2018-08-22T20:28:25.557Z,99.90
2018-08-22T20:33:09.497Z,99.90
2018-08-22T20:37:49.512Z,99.90
2018-08-22T20:42:30.471Z,99.90
2018-08-22T20:47:10.216Z,99.90
2018-08-22T20:51:50.210Z,99.90
2018-08-22T20:56:30.932Z,99.90
2018-08-22T21:01:11.709Z,99.90
2018-08-22T21:05:52.060Z,99.90
2018-08-22T21:10:32.229Z,99.90
2018-08-22T21:15:12.732Z,99.90
2018-08-22T21:19:55.575Z,99.90
2018-08-22T21:24:36.091Z,99.90
2018-08-22T21:29:16.369Z,99.90
2018-08-22T21:33:56.904Z,99.90
2018-08-22T21:38:37.439Z,99.90
2018-08-22T21:43:19.482Z,99.90
2018-08-22T21:48:13.144Z,99.90
2018-08-22T21:52:55.264Z,99.90
2018-08-22T21:57:35.240Z,99.90
2018-08-22T22:02:15.700Z,99.90
2018-08-22T22:06:56.648Z,99.90
2018-08-22T22:11:37.571Z,99.90
2018-08-22T22:16:17.600Z,99.90
2018-08-22T22:21:08.912Z,99.90
2018-08-22T22:25:49.915Z,99.90
2018-08-22T22:30:29.920Z,99.90
2018-08-22T22:35:09.888Z,99.90
2018-08-22T22:39:49.967Z,99.90
2018-08-22T22:44:29.892Z,99.90
2018-08-22T22:49:09.619Z,99.90
2018-08-22T22:53:49.252Z,99.90
2018-08-22T22:58:30.902Z,99.90
2018-08-22T23:03:10.887Z,99.90
2018-08-22T23:07:52.392Z,99.90
2018-08-22T23:12:47.426Z,99.90
2018-08-22T23:17:27.707Z,99.90
2018-08-22T23:22:07.471Z,99.90
2018-08-22T23:26:47.404Z,99.90
2018-08-22T23:31:28.240Z,99.90
2018-08-22T23:36:08.941Z,99.90
2018-08-22T23:40:49.372Z,99.90
2018-08-22T23:45:29.487Z,99.90
2018-08-22T23:50:09.584Z,99.90
2018-08-22T23:54:50.623Z,99.90
2018-08-22T23:59:30.461Z,99.90
